Time;durP1;ratioP1;P1;durP2;ratioP2;P2;SDS_P1;SDS_P2;PMS_P1;PMS_P2;Temp;Humidity;BMP_temperature;BMP_pressure;BME280_temperature;BME280_humidity;BME280_pressure;Samples;Min_cycle;Max_cycle;Signal;HPM_P1;HPM_P2
2023/05/20 00:01:11;;;;;;;11.10;3.13;;;;;;;;;;5093959;28;20020;-68
2023/05/20 00:03:36;;;;;;;3.72;2.58;;;;;;;;;;5095148;28;20042;-69
2023/05/20 00:06:02;;;;;;;4.07;2.50;;;;;;;;;;5093178;28;20028;-69
2023/05/20 00:08:27;;;;;;;6.38;2.30;;;;;;;;;;5094889;28;20031;-69
2023/05/20 00:10:53;;;;;;;5.63;3.03;;;;;;;;;;5094121;28;20020;-69
2023/05/20 00:13:18;;;;;;;4.95;2.25;;;;;;;;;;5095877;28;20023;-70
2023/05/20 00:15:43;;;;;;;3.15;2.05;;;;;;;;;;5105201;28;20032;-70
2023/05/20 00:18:08;;;;;;;4.72;2.78;;;;;;;;;;5096808;28;20035;-70
2023/05/20 00:20:34;;;;;;;4.93;2.33;;;;;;;;;;5095092;28;20036;-70
2023/05/20 00:22:59;;;;;;;7.05;2.97;;;;;;;;;;5108390;28;20027;-70
2023/05/20 00:25:24;;;;;;;4.20;2.30;;;;;;;;;;5099138;28;20023;-69
2023/05/20 00:27:50;;;;;;;4.72;2.45;;;;;;;;;;5112644;28;20036;-70
2023/05/20 00:30:15;;;;;;;4.68;1.92;;;;;;;;;;5111185;28;20024;-69
2023/05/20 00:32:40;;;;;;;6.30;2.50;;;;;;;;;;5111030;28;20505;-70
2023/05/20 00:35:06;;;;;;;6.45;2.70;;;;;;;;;;5111098;28;20063;-70
2023/05/20 00:37:31;;;;;;;3.63;2.00;;;;;;;;;;5111818;28;20036;-69
2023/05/20 00:39:56;;;;;;;4.97;2.70;;;;;;;;;;5109875;28;20045;-69
2023/05/20 00:42:23;;;;;;;4.72;2.25;;;;;;;;;;5110910;28;20435;-69
2023/05/20 00:44:48;;;;;;;3.90;1.90;;;;;;;;;;5110748;28;20027;-69
2023/05/20 00:47:15;;;;;;;6.05;2.95;;;;;;;;;;5097526;28;20031;-69
2023/05/20 00:49:40;;;;;;;4.60;2.33;;;;;;;;;;5091217;28;20039;-69
2023/05/20 00:52:06;;;;;;;5.13;2.42;;;;;;;;;;5091643;28;20391;-69
2023/05/20 00:54:32;;;;;;;7.38;2.53;;;;;;;;;;5099391;28;20224;-69
2023/05/20 00:56:58;;;;;;;5.10;2.40;;;;;;;;;;5111777;28;20066;-69
2023/05/20 00:59:24;;;;;;;6.05;2.75;;;;;;;;;;5111626;28;20027;-69
2023/05/20 01:01:49;;;;;;;7.43;2.55;;;;;;;;;;5109792;28;20596;-69
2023/05/20 01:04:14;;;;;;;4.53;2.50;;;;;;;;;;5108946;28;20020;-70
2023/05/20 01:06:40;;;;;;;11.48;2.83;;;;;;;;;;5103151;28;20033;-69
2023/05/20 01:09:05;;;;;;;5.80;1.83;;;;;;;;;;5108612;28;20035;-69
2023/05/20 01:11:34;;;;;;;3.60;2.15;;;;;;;;;;5110808;28;20026;-69
2023/05/20 01:14:05;;;;;;;5.05;2.40;;;;;;;;;;5105866;28;20476;-69
2023/05/20 01:16:32;;;;;;;6.30;2.90;;;;;;;;;;5109509;28;20119;-69
2023/05/20 01:18:58;;;;;;;5.28;2.40;;;;;;;;;;5109559;28;20035;-69
2023/05/20 01:21:25;;;;;;;5.38;2.85;;;;;;;;;;5091224;28;20032;-68
2023/05/20 01:23:50;;;;;;;4.65;2.63;;;;;;;;;;5100353;28;21512;-69
2023/05/20 01:26:17;;;;;;;5.38;2.70;;;;;;;;;;5095081;28;20027;-69
2023/05/20 01:28:43;;;;;;;3.70;2.17;;;;;;;;;;5108893;28;20024;-69
2023/05/20 01:31:18;;;;;;;5.22;2.45;;;;;;;;;;5110315;28;20028;-69
2023/05/20 01:33:43;;;;;;;5.43;2.83;;;;;;;;;;5108997;28;20019;-69
2023/05/20 01:36:09;;;;;;;5.43;2.80;;;;;;;;;;5110281;28;20080;-69
2023/05/20 01:38:35;;;;;;;4.75;2.30;;;;;;;;;;5110236;28;20068;-69
2023/05/20 01:41:01;;;;;;;4.30;2.58;;;;;;;;;;5107877;28;20122;-69
2023/05/20 01:43:27;;;;;;;4.03;2.17;;;;;;;;;;5102101;28;20024;-69
2023/05/20 01:45:52;;;;;;;4.22;2.47;;;;;;;;;;5093632;28;20025;-69
2023/05/20 01:48:17;;;;;;;5.93;2.83;;;;;;;;;;5111441;28;20058;-68
2023/05/20 01:50:43;;;;;;;5.40;2.72;;;;;;;;;;5110674;28;20035;-68
2023/05/20 01:53:08;;;;;;;5.05;2.63;;;;;;;;;;5110748;28;20073;-69
2023/05/20 01:55:34;;;;;;;18.75;3.05;;;;;;;;;;5109644;28;20173;-69
2023/05/20 01:57:59;;;;;;;4.45;2.50;;;;;;;;;;5110517;28;20020;-69
2023/05/20 02:00:24;;;;;;;6.65;3.00;;;;;;;;;;5109925;28;20044;-69
2023/05/20 02:02:50;;;;;;;5.45;2.50;;;;;;;;;;5111226;28;20462;-69
2023/05/20 02:05:15;;;;;;;5.68;2.28;;;;;;;;;;5110515;28;20020;-69
2023/05/20 02:07:40;;;;;;;5.07;2.70;;;;;;;;;;5110934;28;20343;-69
2023/05/20 02:10:06;;;;;;;9.10;2.53;;;;;;;;;;5110544;28;20028;-69
2023/05/20 02:12:31;;;;;;;4.72;2.40;;;;;;;;;;5110688;28;20089;-69
2023/05/20 02:14:56;;;;;;;4.55;2.72;;;;;;;;;;5110509;28;20034;-69
2023/05/20 02:17:21;;;;;;;4.57;2.95;;;;;;;;;;5101822;28;20528;-69
2023/05/20 02:19:47;;;;;;;4.68;2.83;;;;;;;;;;5094541;28;20028;-70
2023/05/20 02:22:12;;;;;;;7.18;3.25;;;;;;;;;;5098736;28;20050;-70
2023/05/20 02:24:38;;;;;;;6.07;2.60;;;;;;;;;;5094879;28;20114;-70
2023/05/20 02:27:05;;;;;;;5.88;3.47;;;;;;;;;;5098867;28;20020;-70
2023/05/20 02:29:30;;;;;;;5.70;3.25;;;;;;;;;;5095806;28;20066;-70
2023/05/20 02:31:55;;;;;;;5.28;2.33;;;;;;;;;;5100395;28;20060;-69
2023/05/20 02:34:21;;;;;;;5.80;2.65;;;;;;;;;;5096284;28;20091;-70
2023/05/20 02:36:46;;;;;;;4.97;2.90;;;;;;;;;;5100242;28;20073;-69
2023/05/20 02:39:11;;;;;;;8.20;2.60;;;;;;;;;;5094611;28;20010;-70
2023/05/20 02:41:36;;;;;;;5.78;2.70;;;;;;;;;;5099083;28;20035;-69
2023/05/20 02:44:02;;;;;;;4.93;2.80;;;;;;;;;;5094727;28;20117;-69
2023/05/20 02:46:27;;;;;;;7.72;3.15;;;;;;;;;;5099731;28;20031;-70
2023/05/20 02:48:52;;;;;;;5.60;3.28;;;;;;;;;;5094636;28;20024;-69
2023/05/20 02:51:17;;;;;;;4.57;3.08;;;;;;;;;;5098683;28;20058;-69
2023/05/20 02:53:43;;;;;;;6.00;3.05;;;;;;;;;;5102752;28;20023;-70
2023/05/20 02:56:08;;;;;;;4.35;2.72;;;;;;;;;;5101910;28;20541;-69
2023/05/20 02:58:34;;;;;;;4.45;2.92;;;;;;;;;;5102795;28;20048;-69
2023/05/20 03:00:59;;;;;;;6.57;2.95;;;;;;;;;;5098934;28;20457;-69
2023/05/20 03:03:26;;;;;;;7.55;3.20;;;;;;;;;;5090755;28;20048;-70
2023/05/20 03:05:51;;;;;;;6.95;3.10;;;;;;;;;;5099687;28;20024;-70
2023/05/20 03:08:17;;;;;;;5.85;2.85;;;;;;;;;;5094341;28;20386;-69
2023/05/20 03:10:42;;;;;;;5.80;3.33;;;;;;;;;;5099491;28;20016;-69
2023/05/20 03:13:10;;;;;;;5.25;2.78;;;;;;;;;;5094133;28;20069;-69
2023/05/20 03:15:35;;;;;;;4.72;3.42;;;;;;;;;;5104270;28;20467;-69
2023/05/20 03:18:01;;;;;;;6.10;3.33;;;;;;;;;;5102722;28;20031;-69
2023/05/20 03:20:27;;;;;;;8.02;3.88;;;;;;;;;;5107659;28;20634;-69
2023/05/20 03:22:53;;;;;;;6.95;3.70;;;;;;;;;;5109033;28;20035;-69
2023/05/20 03:25:18;;;;;;;5.95;3.00;;;;;;;;;;5109111;28;20028;-68
2023/05/20 03:27:43;;;;;;;4.28;2.85;;;;;;;;;;5109431;28;20099;-69
2023/05/20 03:30:09;;;;;;;4.80;3.17;;;;;;;;;;5110619;28;20148;-69
2023/05/20 03:32:34;;;;;;;8.40;3.38;;;;;;;;;;5112871;28;20023;-68
2023/05/20 03:34:59;;;;;;;5.47;2.88;;;;;;;;;;5112032;28;20030;-69
2023/05/20 03:37:25;;;;;;;6.82;4.32;;;;;;;;;;5112001;28;20024;-69
2023/05/20 03:39:50;;;;;;;8.10;4.85;;;;;;;;;;5110758;28;20007;-69
2023/05/20 03:42:15;;;;;;;6.82;4.50;;;;;;;;;;5111763;28;20106;-69
2023/05/20 03:44:40;;;;;;;4.47;3.30;;;;;;;;;;5110804;28;20386;-69
2023/05/20 03:47:05;;;;;;;6.25;3.20;;;;;;;;;;5111960;28;20034;-69
2023/05/20 03:49:31;;;;;;;4.18;2.83;;;;;;;;;;5110698;28;20058;-69
2023/05/20 03:51:56;;;;;;;5.32;3.30;;;;;;;;;;5112318;28;20038;-69
2023/05/20 03:54:21;;;;;;;6.13;3.00;;;;;;;;;;5110846;28;20027;-69
2023/05/20 03:56:48;;;;;;;8.13;3.08;;;;;;;;;;5110964;28;20023;-69
2023/05/20 03:59:13;;;;;;;4.55;3.00;;;;;;;;;;5106495;28;20064;-69
2023/05/20 04:01:38;;;;;;;9.30;3.35;;;;;;;;;;5109865;28;20035;-69
2023/05/20 04:04:04;;;;;;;6.07;3.65;;;;;;;;;;5108773;28;20031;-69
2023/05/20 04:06:30;;;;;;;7.15;3.58;;;;;;;;;;5110201;28;20023;-69
2023/05/20 04:08:56;;;;;;;5.28;3.05;;;;;;;;;;5105681;28;20183;-69
2023/05/20 04:11:21;;;;;;;5.88;3.53;;;;;;;;;;5112163;28;20027;-69
2023/05/20 04:13:46;;;;;;;7.28;2.88;;;;;;;;;;5104437;28;20023;-69
2023/05/20 04:16:12;;;;;;;5.25;3.67;;;;;;;;;;5112597;28;20501;-69
2023/05/20 04:18:37;;;;;;;7.35;3.65;;;;;;;;;;5112549;28;20032;-69
2023/05/20 04:21:03;;;;;;;10.93;3.67;;;;;;;;;;5111782;28;20145;-69
2023/05/20 04:23:28;;;;;;;5.95;3.15;;;;;;;;;;5110508;28;20027;-69
2023/05/20 04:25:54;;;;;;;7.10;4.35;;;;;;;;;;5111535;28;20030;-69
2023/05/20 04:28:22;;;;;;;5.75;3.85;;;;;;;;;;5110594;28;20027;-69
2023/05/20 04:30:48;;;;;;;6.53;3.45;;;;;;;;;;5112013;28;20023;-69
2023/05/20 04:33:15;;;;;;;6.88;3.58;;;;;;;;;;5109740;28;20030;-68
2023/05/20 04:35:40;;;;;;;5.50;2.85;;;;;;;;;;5110826;28;20035;-68
2023/05/20 04:38:06;;;;;;;8.13;3.28;;;;;;;;;;5110017;28;20545;-69
2023/05/20 04:40:31;;;;;;;9.60;3.33;;;;;;;;;;5110733;28;20050;-69
2023/05/20 04:42:58;;;;;;;5.90;3.60;;;;;;;;;;5109942;28;20028;-69
2023/05/20 04:45:24;;;;;;;6.13;3.45;;;;;;;;;;5112082;28;20137;-69
2023/05/20 04:47:52;;;;;;;7.07;3.75;;;;;;;;;;5110692;28;20103;-69
2023/05/20 04:50:17;;;;;;;9.77;3.42;;;;;;;;;;5111633;28;20538;-69
2023/05/20 04:52:44;;;;;;;7.03;4.00;;;;;;;;;;5111276;28;20095;-70
2023/05/20 04:55:10;;;;;;;4.95;3.40;;;;;;;;;;5100025;28;20106;-69
2023/05/20 04:57:38;;;;;;;8.40;3.67;;;;;;;;;;5091868;28;20455;-69
2023/05/20 05:00:06;;;;;;;5.38;2.78;;;;;;;;;;5091648;28;20036;-70
2023/05/20 05:02:31;;;;;;;7.10;3.63;;;;;;;;;;5092261;28;20039;-69
2023/05/20 05:04:57;;;;;;;4.20;3.00;;;;;;;;;;5091879;28;20398;-69
2023/05/20 05:07:22;;;;;;;5.32;3.70;;;;;;;;;;5111144;28;20381;-69
2023/05/20 05:09:47;;;;;;;6.28;3.65;;;;;;;;;;5110776;28;20028;-69
2023/05/20 05:12:13;;;;;;;8.00;3.42;;;;;;;;;;5110621;28;20075;-69
2023/05/20 05:14:38;;;;;;;6.32;3.25;;;;;;;;;;5111267;28;20363;-69
2023/05/20 05:17:03;;;;;;;9.73;3.55;;;;;;;;;;5111734;28;20067;-68
2023/05/20 05:19:28;;;;;;;6.72;3.45;;;;;;;;;;5100067;28;20463;-70
2023/05/20 05:21:54;;;;;;;5.88;3.58;;;;;;;;;;5104853;28;20043;-68
2023/05/20 05:24:19;;;;;;;6.70;3.60;;;;;;;;;;5100022;28;20501;-69
2023/05/20 05:26:44;;;;;;;9.15;3.78;;;;;;;;;;5092752;28;20028;-68
2023/05/20 05:29:10;;;;;;;9.32;3.53;;;;;;;;;;5093350;28;20441;-68
2023/05/20 05:31:35;;;;;;;7.13;3.42;;;;;;;;;;5067760;28;20859;-68
2023/05/20 05:34:00;;;;;;;7.50;3.08;;;;;;;;;;5105061;28;20023;-68
2023/05/20 05:36:25;;;;;;;5.78;2.92;;;;;;;;;;5098307;28;20547;-68
2023/05/20 05:38:51;;;;;;;4.75;2.80;;;;;;;;;;5101788;28;20028;-67
2023/05/20 05:41:16;;;;;;;6.82;3.38;;;;;;;;;;5102078;28;20379;-68
2023/05/20 05:43:41;;;;;;;6.38;3.03;;;;;;;;;;5090332;28;20024;-68
2023/05/20 05:46:08;;;;;;;9.27;3.42;;;;;;;;;;5102814;28;20043;-68
2023/05/20 05:48:33;;;;;;;11.65;3.33;;;;;;;;;;5106785;28;20027;-67
2023/05/20 05:50:59;;;;;;;6.82;3.30;;;;;;;;;;5102720;28;20470;-69
2023/05/20 05:53:24;;;;;;;7.37;3.40;;;;;;;;;;5079827;28;20475;-68
2023/05/20 05:55:49;;;;;;;6.18;2.90;;;;;;;;;;5102387;28;20329;-68
2023/05/20 05:58:15;;;;;;;5.43;2.95;;;;;;;;;;5110184;28;20020;-68
2023/05/20 06:00:40;;;;;;;6.75;3.50;;;;;;;;;;5107720;28;20116;-68
2023/05/20 06:03:05;;;;;;;6.80;3.10;;;;;;;;;;5104470;28;20023;-68
2023/05/20 06:05:31;;;;;;;5.70;3.13;;;;;;;;;;5103587;28;20016;-68
2023/05/20 06:07:56;;;;;;;4.22;2.97;;;;;;;;;;5107655;28;20016;-66
2023/05/20 06:10:21;;;;;;;8.10;3.38;;;;;;;;;;5090799;28;20467;-67
2023/05/20 06:12:47;;;;;;;7.32;3.10;;;;;;;;;;5092777;28;20016;-68
2023/05/20 06:15:12;;;;;;;5.30;3.00;;;;;;;;;;5099262;28;20027;-68
2023/05/20 06:17:37;;;;;;;4.88;2.95;;;;;;;;;;5110971;28;20028;-68
2023/05/20 06:20:03;;;;;;;5.93;3.20;;;;;;;;;;5097640;28;20065;-68
2023/05/20 06:22:28;;;;;;;7.18;3.35;;;;;;;;;;5099310;28;20467;-67
2023/05/20 06:24:55;;;;;;;6.07;3.10;;;;;;;;;;5104561;28;20110;-68
2023/05/20 06:27:20;;;;;;;5.35;2.80;;;;;;;;;;5102277;28;20043;-67
2023/05/20 06:29:46;;;;;;;5.10;3.22;;;;;;;;;;5104985;28;20024;-68
2023/05/20 06:32:11;;;;;;;5.93;2.88;;;;;;;;;;5102341;28;20020;-67
2023/05/20 06:34:36;;;;;;;7.10;3.20;;;;;;;;;;5104841;28;20393;-68
2023/05/20 06:37:01;;;;;;;7.15;2.95;;;;;;;;;;5101824;28;20028;-68
2023/05/20 06:39:27;;;;;;;5.68;2.97;;;;;;;;;;5100073;28;20027;-67
2023/05/20 06:41:52;;;;;;;6.57;3.30;;;;;;;;;;5101448;28;20024;-68
2023/05/20 06:44:17;;;;;;;4.45;2.85;;;;;;;;;;5103921;28;20337;-65
2023/05/20 06:46:43;;;;;;;4.95;3.05;;;;;;;;;;5101823;28;20047;-67
2023/05/20 06:49:08;;;;;;;9.50;3.85;;;;;;;;;;5104862;28;20019;-68
2023/05/20 06:51:33;;;;;;;6.63;3.45;;;;;;;;;;5101704;28;20023;-65
2023/05/20 06:53:58;;;;;;;7.28;3.63;;;;;;;;;;5103828;28;20516;-68
2023/05/20 06:56:24;;;;;;;5.95;3.17;;;;;;;;;;5106539;28;20086;-69
2023/05/20 06:58:49;;;;;;;6.35;3.28;;;;;;;;;;5104707;28;20107;-68
2023/05/20 07:01:15;;;;;;;5.03;3.22;;;;;;;;;;5106817;28;20023;-68
2023/05/20 07:03:41;;;;;;;6.43;3.50;;;;;;;;;;5104984;28;20028;-68
2023/05/20 07:06:06;;;;;;;7.68;3.42;;;;;;;;;;5106833;28;20362;-67
2023/05/20 07:08:32;;;;;;;5.10;3.22;;;;;;;;;;5107854;28;20024;-67
2023/05/20 07:10:57;;;;;;;9.90;3.63;;;;;;;;;;5104454;28;20028;-68
2023/05/20 07:13:22;;;;;;;5.18;2.95;;;;;;;;;;5109540;28;20773;-67
2023/05/20 07:15:48;;;;;;;5.25;3.33;;;;;;;;;;5110614;28;20466;-65
2023/05/20 07:18:14;;;;;;;4.97;3.47;;;;;;;;;;5108842;28;20072;-68
2023/05/20 07:20:39;;;;;;;8.45;3.53;;;;;;;;;;5109200;28;20039;-68
2023/05/20 07:23:04;;;;;;;11.50;3.35;;;;;;;;;;5113690;28;20092;-68
2023/05/20 07:25:30;;;;;;;10.35;3.03;;;;;;;;;;5097669;28;20043;-65
2023/05/20 07:27:55;;;;;;;5.47;3.03;;;;;;;;;;5097422;28;20474;-68
2023/05/20 07:30:20;;;;;;;8.02;2.92;;;;;;;;;;5096722;28;20032;-68
2023/05/20 07:32:45;;;;;;;6.28;3.03;;;;;;;;;;5095241;28;20035;-67
2023/05/20 07:35:11;;;;;;;4.43;3.13;;;;;;;;;;5095458;28;20669;-69
2023/05/20 07:37:36;;;;;;;5.10;3.40;;;;;;;;;;5075792;28;20054;-68
2023/05/20 07:40:01;;;;;;;5.88;3.45;;;;;;;;;;5094543;28;20099;-69
2023/05/20 07:42:26;;;;;;;5.50;2.97;;;;;;;;;;5093816;28;20036;-68
2023/05/20 07:44:52;;;;;;;8.30;3.28;;;;;;;;;;5076922;28;20016;-68
2023/05/20 07:47:17;;;;;;;5.70;3.22;;;;;;;;;;5093995;28;20020;-68
2023/05/20 07:49:43;;;;;;;4.07;2.90;;;;;;;;;;5095436;28;20463;-68
2023/05/20 07:52:08;;;;;;;5.68;3.20;;;;;;;;;;5094179;28;20463;-67
2023/05/20 07:54:33;;;;;;;8.80;3.13;;;;;;;;;;5095267;28;20048;-68
2023/05/20 07:56:59;;;;;;;6.22;3.05;;;;;;;;;;5093654;28;20513;-67
2023/05/20 07:59:25;;;;;;;8.00;3.25;;;;;;;;;;5096035;28;20115;-68
2023/05/20 08:01:50;;;;;;;7.38;3.15;;;;;;;;;;5095029;28;20059;-72
2023/05/20 08:04:15;;;;;;;6.72;3.47;;;;;;;;;;5099540;28;20525;-64
2023/05/20 08:06:43;;;;;;;5.78;3.10;;;;;;;;;;5112592;28;20107;-65
2023/05/20 08:09:08;;;;;;;5.57;2.83;;;;;;;;;;5111051;28;20020;-68
2023/05/20 08:11:34;;;;;;;4.85;3.28;;;;;;;;;;5112095;28;20023;-67
2023/05/20 08:13:59;;;;;;;4.10;2.70;;;;;;;;;;5110320;28;20027;-64
2023/05/20 08:16:24;;;;;;;8.90;3.35;;;;;;;;;;5110946;28;20043;-66
2023/05/20 08:18:50;;;;;;;4.95;3.22;;;;;;;;;;5106725;28;20034;-65
2023/05/20 08:21:15;;;;;;;5.50;3.03;;;;;;;;;;5112515;28;20020;-66
2023/05/20 08:23:40;;;;;;;5.70;3.17;;;;;;;;;;5099471;28;20394;-66
2023/05/20 08:26:06;;;;;;;8.35;3.65;;;;;;;;;;5111557;28;20184;-62
2023/05/20 08:28:31;;;;;;;8.68;3.55;;;;;;;;;;5107351;28;20031;-67
2023/05/20 08:30:57;;;;;;;6.50;3.40;;;;;;;;;;5111758;28;20393;-64
2023/05/20 08:33:22;;;;;;;6.93;3.03;;;;;;;;;;5108397;28;20011;-67
2023/05/20 08:35:47;;;;;;;8.73;3.97;;;;;;;;;;5092909;28;20497;-66
2023/05/20 08:38:13;;;;;;;4.82;3.13;;;;;;;;;;5102816;28;20047;-67
2023/05/20 08:40:38;;;;;;;11.20;3.58;;;;;;;;;;5095697;28;20099;-67
2023/05/20 08:43:03;;;;;;;6.63;3.60;;;;;;;;;;5095181;28;20424;-67
2023/05/20 08:45:31;;;;;;;6.05;3.75;;;;;;;;;;5092008;28;20024;-65
2023/05/20 08:47:56;;;;;;;7.88;3.55;;;;;;;;;;5094487;28;20028;-65
2023/05/20 08:50:21;;;;;;;4.95;3.35;;;;;;;;;;5093554;28;20059;-63
2023/05/20 08:52:50;;;;;;;5.78;3.30;;;;;;;;;;5094398;28;20020;-67
2023/05/20 08:55:25;;;;;;;6.25;3.65;;;;;;;;;;5101832;28;20385;-68
2023/05/20 08:57:53;;;;;;;5.97;3.38;;;;;;;;;;5108051;28;20185;-66
2023/05/20 09:00:19;;;;;;;6.47;3.25;;;;;;;;;;5099543;28;20035;-63
2023/05/20 09:02:44;;;;;;;8.68;3.90;;;;;;;;;;5094248;28;20027;-65
2023/05/20 09:05:10;;;;;;;6.15;3.45;;;;;;;;;;5094242;28;20020;-65
2023/05/20 09:07:35;;;;;;;13.25;3.63;;;;;;;;;;5096855;28;20015;-68
2023/05/20 09:10:01;;;;;;;6.57;3.47;;;;;;;;;;5094697;28;20020;-68
2023/05/20 09:12:26;;;;;;;11.70;3.45;;;;;;;;;;5097460;28;20393;-67
2023/05/20 09:14:51;;;;;;;14.77;4.10;;;;;;;;;;5098650;28;20023;-68
2023/05/20 09:17:17;;;;;;;6.03;3.30;;;;;;;;;;5107326;28;20027;-67
2023/05/20 09:19:42;;;;;;;6.88;3.35;;;;;;;;;;5098213;28;20272;-63
2023/05/20 09:22:07;;;;;;;8.55;3.65;;;;;;;;;;5110917;28;20098;-66
2023/05/20 09:24:33;;;;;;;6.90;3.23;;;;;;;;;;5103399;28;20059;-66
2023/05/20 09:26:58;;;;;;;6.67;3.67;;;;;;;;;;5110851;28;20273;-64
2023/05/20 09:29:25;;;;;;;5.32;3.10;;;;;;;;;;5101509;28;20270;-67
2023/05/20 09:31:50;;;;;;;9.88;3.28;;;;;;;;;;5106754;28;20051;-67
2023/05/20 09:34:16;;;;;;;6.32;3.55;;;;;;;;;;5097610;28;20036;-68
2023/05/20 09:36:42;;;;;;;10.75;3.45;;;;;;;;;;5085205;28;20363;-67
2023/05/20 09:39:10;;;;;;;3.92;3.00;;;;;;;;;;5097151;28;20031;-66
2023/05/20 09:41:38;;;;;;;7.43;3.08;;;;;;;;;;5097624;28;20029;-66
2023/05/20 09:44:05;;;;;;;6.57;2.83;;;;;;;;;;5093623;28;20032;-67
2023/05/20 09:46:31;;;;;;;9.27;3.97;;;;;;;;;;5101792;28;20038;-67
2023/05/20 09:48:57;;;;;;;7.85;3.28;;;;;;;;;;5098896;28;20089;-68
2023/05/20 09:51:23;;;;;;;4.72;3.05;;;;;;;;;;5084200;28;20031;-67
2023/05/20 09:53:49;;;;;;;3.47;2.28;;;;;;;;;;5098907;28;20536;-68
2023/05/20 09:56:18;;;;;;;3.92;2.38;;;;;;;;;;5109734;28;20394;-64
2023/05/20 09:58:44;;;;;;;6.63;3.17;;;;;;;;;;5100354;28;20020;-66
2023/05/20 10:01:10;;;;;;;6.60;3.20;;;;;;;;;;5110136;28;20023;-67
2023/05/20 10:03:35;;;;;;;5.95;3.53;;;;;;;;;;5106436;28;20019;-68
2023/05/20 10:06:24;;;;;;;7.25;3.22;;;;;;;;;;5103446;28;20027;-66
2023/05/20 10:08:50;;;;;;;7.82;2.95;;;;;;;;;;5109008;28;20019;-66
2023/05/20 10:11:23;;;;;;;5.82;2.75;;;;;;;;;;5110291;28;20462;-65
2023/05/20 10:13:57;;;;;;;7.25;3.70;;;;;;;;;;5105044;28;20416;-64
2023/05/20 10:16:23;;;;;;;;;;;;;;;;;;5107985;28;20478;-67
2023/05/20 10:18:48;;;;;;;6.95;3.20;;;;;;;;;;5111225;28;19937;-66
2023/05/20 10:21:14;;;;;;;6.37;3.47;;;;;;;;;;5110673;28;20031;-66
2023/05/20 10:23:39;;;;;;;5.50;3.30;;;;;;;;;;5108574;28;20311;-67
2023/05/20 10:26:05;;;;;;;6.85;3.42;;;;;;;;;;5103091;28;20378;-67
2023/05/20 10:28:32;;;;;;;4.47;2.88;;;;;;;;;;5109420;28;20047;-67
2023/05/20 10:30:58;;;;;;;5.10;3.50;;;;;;;;;;5110130;28;20047;-66
2023/05/20 10:33:25;;;;;;;5.20;2.92;;;;;;;;;;5110316;28;20501;-65
2023/05/20 10:35:51;;;;;;;4.88;2.80;;;;;;;;;;5110441;28;20036;-66
2023/05/20 10:38:17;;;;;;;5.80;3.08;;;;;;;;;;5111183;28;20541;-67
2023/05/20 10:40:42;;;;;;;4.55;3.20;;;;;;;;;;5114996;28;20023;-66
2023/05/20 10:43:11;;;;;;;9.60;3.85;;;;;;;;;;5100675;28;20358;-67
2023/05/20 10:45:46;;;;;;;4.57;3.15;;;;;;;;;;5100795;28;20445;-67
2023/05/20 10:48:19;;;;;;;6.47;3.30;;;;;;;;;;5094146;28;20020;-67
2023/05/20 10:50:44;;;;;;;8.68;3.67;;;;;;;;;;5093643;28;20047;-62
2023/05/20 10:53:13;;;;;;;6.68;3.67;;;;;;;;;;5102396;28;20668;-64
2023/05/20 10:55:39;;;;;;;4.18;2.88;;;;;;;;;;5098509;28;20066;-63
2023/05/20 10:58:05;;;;;;;6.45;3.33;;;;;;;;;;5094842;28;20161;-67
2023/05/20 11:00:31;;;;;;;6.63;3.38;;;;;;;;;;5096357;28;20122;-67
2023/05/20 11:02:59;;;;;;;8.23;2.83;;;;;;;;;;5113003;28;20155;-66
2023/05/20 11:05:25;;;;;;;12.55;4.20;;;;;;;;;;5111735;28;21115;-67
2023/05/20 11:07:59;;;;;;;4.68;3.20;;;;;;;;;;5113161;28;20132;-66
2023/05/20 11:10:24;;;;;;;6.13;3.20;;;;;;;;;;5112734;28;20027;-67
2023/05/20 11:12:49;;;;;;;5.85;3.25;;;;;;;;;;5112428;28;20107;-67
2023/05/20 11:15:15;;;;;;;8.05;3.58;;;;;;;;;;5112937;28;20102;-67
2023/05/20 11:17:50;;;;;;;6.50;3.38;;;;;;;;;;5113387;28;20064;-66
2023/05/20 11:20:16;;;;;;;7.45;4.13;;;;;;;;;;5112639;28;20442;-64
2023/05/20 11:22:43;;;;;;;8.93;4.03;;;;;;;;;;5113222;28;20036;-67
2023/05/20 11:25:09;;;;;;;8.63;3.95;;;;;;;;;;5112067;28;20031;-67
2023/05/20 11:27:37;;;;;;;5.80;4.10;;;;;;;;;;5112681;28;20032;-67
2023/05/20 11:30:04;;;;;;;8.35;4.28;;;;;;;;;;5111859;28;20373;-66
2023/05/20 11:32:29;;;;;;;11.98;3.88;;;;;;;;;;5113659;28;20496;-67
2023/05/20 11:34:55;;;;;;;6.53;4.45;;;;;;;;;;5111250;28;20031;-67
2023/05/20 11:37:22;;;;;;;7.68;4.05;;;;;;;;;;5112520;28;20051;-67
2023/05/20 11:39:48;;;;;;;9.15;4.38;;;;;;;;;;5110737;28;20038;-66
2023/05/20 11:42:16;;;;;;;7.63;4.90;;;;;;;;;;5113047;28;20103;-67
2023/05/20 11:44:44;;;;;;;8.40;4.55;;;;;;;;;;5111996;28;20016;-67
2023/05/20 11:47:09;;;;;;;7.47;3.58;;;;;;;;;;5111537;28;20055;-67
2023/05/20 11:49:38;;;;;;;6.15;3.80;;;;;;;;;;5111569;28;20077;-67
2023/05/20 11:52:04;;;;;;;9.18;4.07;;;;;;;;;;5099268;28;20563;-67
2023/05/20 11:54:34;;;;;;;6.05;3.95;;;;;;;;;;5080619;28;20024;-66
2023/05/20 11:56:59;;;;;;;4.70;3.67;;;;;;;;;;5067924;28;20869;-67
2023/05/20 11:59:24;;;;;;;12.30;5.07;;;;;;;;;;5070700;28;20066;-66
2023/05/20 12:01:50;;;;;;;10.60;4.22;;;;;;;;;;5074770;28;20081;-67
2023/05/20 12:04:16;;;;;;;6.37;4.97;;;;;;;;;;5098744;28;20478;-65
2023/05/20 12:06:44;;;;;;;6.13;4.18;;;;;;;;;;5095845;28;20754;-66
2023/05/20 12:09:10;;;;;;;7.05;4.20;;;;;;;;;;5105800;28;20073;-67
2023/05/20 12:11:36;;;;;;;7.22;4.63;;;;;;;;;;5096291;28;20032;-66
2023/05/20 12:14:02;;;;;;;9.35;4.15;;;;;;;;;;5100527;28;20182;-66
2023/05/20 12:16:29;;;;;;;9.40;4.55;;;;;;;;;;5109550;28;20206;-66
2023/05/20 12:18:54;;;;;;;6.20;4.28;;;;;;;;;;5105950;28;20068;-67
2023/05/20 12:21:19;;;;;;;8.67;4.67;;;;;;;;;;5105578;28;20106;-67
2023/05/20 12:23:44;;;;;;;6.85;4.72;;;;;;;;;;5105635;28;20032;-67
2023/05/20 12:26:10;;;;;;;7.07;5.07;;;;;;;;;;5084141;28;20043;-66
2023/05/20 12:28:35;;;;;;;7.57;4.97;;;;;;;;;;5068953;28;20050;-67
2023/05/20 12:31:00;;;;;;;8.63;5.05;;;;;;;;;;5066596;28;20382;-66
2023/05/20 12:33:27;;;;;;;10.27;4.88;;;;;;;;;;5067983;28;20487;-67
2023/05/20 12:35:52;;;;;;;6.43;4.38;;;;;;;;;;5095160;28;20027;-67
2023/05/20 12:38:17;;;;;;;6.70;4.93;;;;;;;;;;5091573;28;20433;-67
2023/05/20 12:40:42;;;;;;;7.60;5.43;;;;;;;;;;5096874;28;20015;-66
2023/05/20 12:43:08;;;;;;;8.57;5.03;;;;;;;;;;5106964;28;20050;-66
2023/05/20 12:45:33;;;;;;;11.48;5.53;;;;;;;;;;5094179;28;20381;-67
2023/05/20 12:47:59;;;;;;;10.00;5.63;;;;;;;;;;5093013;28;20482;-63
2023/05/20 12:50:24;;;;;;;15.82;5.50;;;;;;;;;;5092356;28;20019;-67
2023/05/20 12:52:50;;;;;;;8.93;4.45;;;;;;;;;;5092035;28;20023;-67
2023/05/20 12:55:15;;;;;;;9.55;5.00;;;;;;;;;;5092271;28;20436;-66
2023/05/20 12:57:42;;;;;;;9.73;5.70;;;;;;;;;;5092105;28;20059;-66
2023/05/20 13:00:07;;;;;;;14.05;5.00;;;;;;;;;;5093641;28;20482;-64
2023/05/20 13:02:33;;;;;;;9.18;5.90;;;;;;;;;;5111609;28;20072;-67
2023/05/20 13:04:58;;;;;;;9.95;6.75;;;;;;;;;;5101611;28;20533;-65
2023/05/20 13:07:25;;;;;;;9.85;4.55;;;;;;;;;;5099390;28;20028;-67
2023/05/20 13:09:50;;;;;;;10.32;5.60;;;;;;;;;;5097160;28;20024;-67
2023/05/20 13:12:16;;;;;;;12.95;6.47;;;;;;;;;;5110150;28;20099;-66
2023/05/20 13:14:41;;;;;;;11.67;6.47;;;;;;;;;;5101579;28;20079;-64
2023/05/20 13:17:06;;;;;;;8.52;5.63;;;;;;;;;;5111635;28;20277;-67
2023/05/20 13:19:32;;;;;;;6.45;4.53;;;;;;;;;;5111564;28;20529;-66
2023/05/20 13:21:57;;;;;;;8.23;5.47;;;;;;;;;;5110538;28;20015;-67
2023/05/20 13:24:23;;;;;;;17.45;6.18;;;;;;;;;;5110508;28;20079;-64
2023/05/20 13:26:48;;;;;;;9.07;6.22;;;;;;;;;;5108363;28;20066;-65
2023/05/20 13:29:13;;;;;;;12.15;6.25;;;;;;;;;;5092913;28;20103;-66
2023/05/20 13:31:38;;;;;;;11.30;6.07;;;;;;;;;;5094524;28;20019;-66
2023/05/20 13:34:04;;;;;;;8.80;5.70;;;;;;;;;;5092618;28;20304;-64
2023/05/20 13:36:30;;;;;;;10.05;5.45;;;;;;;;;;5094614;28;20301;-67
2023/05/20 13:38:55;;;;;;;7.65;5.75;;;;;;;;;;5092758;28;20034;-64
2023/05/20 13:41:20;;;;;;;16.83;6.45;;;;;;;;;;5094257;28;20118;-65
2023/05/20 13:43:46;;;;;;;10.25;6.53;;;;;;;;;;5093063;28;20051;-68
2023/05/20 13:46:11;;;;;;;8.33;5.10;;;;;;;;;;5093567;28;20121;-70
2023/05/20 13:48:36;;;;;;;9.82;6.47;;;;;;;;;;5096535;28;20273;-65
2023/05/20 13:51:02;;;;;;;10.90;6.18;;;;;;;;;;5101890;28;20050;-67
2023/05/20 13:53:27;;;;;;;9.55;5.57;;;;;;;;;;5102946;28;20070;-64
2023/05/20 13:55:53;;;;;;;8.95;4.95;;;;;;;;;;5104745;28;20485;-64
2023/05/20 13:58:18;;;;;;;10.18;5.65;;;;;;;;;;5107929;28;20489;-66
2023/05/20 14:00:43;;;;;;;7.00;4.93;;;;;;;;;;5094129;28;20077;-66
2023/05/20 14:03:09;;;;;;;9.98;5.47;;;;;;;;;;5101013;28;20311;-62
2023/05/20 14:05:34;;;;;;;7.75;4.97;;;;;;;;;;5094209;28;20047;-66
2023/05/20 14:08:00;;;;;;;12.93;5.40;;;;;;;;;;5097371;28;20039;-68
2023/05/20 14:10:25;;;;;;;9.98;6.00;;;;;;;;;;5095536;28;20454;-66
2023/05/20 14:12:51;;;;;;;13.32;5.55;;;;;;;;;;5092748;28;20020;-66
2023/05/20 14:15:16;;;;;;;7.07;5.28;;;;;;;;;;5108732;28;20106;-67
2023/05/20 14:17:42;;;;;;;11.10;5.20;;;;;;;;;;5093369;28;20027;-64
2023/05/20 14:20:07;;;;;;;6.05;4.60;;;;;;;;;;5097353;28;20885;-67
2023/05/20 14:22:32;;;;;;;6.45;4.85;;;;;;;;;;5110852;28;20031;-67
2023/05/20 14:24:57;;;;;;;7.43;5.00;;;;;;;;;;5093051;28;20383;-66
2023/05/20 14:27:23;;;;;;;8.73;5.20;;;;;;;;;;5090305;28;20157;-66
2023/05/20 14:29:48;;;;;;;8.83;5.83;;;;;;;;;;5089743;28;20277;-66
2023/05/20 14:32:13;;;;;;;8.10;4.70;;;;;;;;;;5096652;28;20280;-66
2023/05/20 14:34:38;;;;;;;12.35;4.75;;;;;;;;;;5103463;28;20292;-68